Time;durP1;ratioP1;P1;durP2;ratioP2;P2;SDS_P1;SDS_P2;PMS_P1;PMS_P2;Temp;Humidity;BMP_temperature;BMP_pressure;BME280_temperature;BME280_humidity;BME280_pressure;Samples;Min_cycle;Max_cycle;Signal;HPM_P1;HPM_P2
2021/10/24 00:00:33;;;;;;;;;;;;;;;13.96;78.06;102384.44;1049715;28;784;-59
2021/10/24 00:01:24;;;;;;;;;;;;;;;13.96;79.90;102391.63;1049026;28;1724;-60
2021/10/24 00:02:14;;;;;;;;;;;;;;;13.95;79.35;102389.88;1049848;28;760;-60
2021/10/24 00:03:05;;;;;;;;;;;;;;;13.95;79.00;102387.19;1049803;28;712;-59
2021/10/24 00:03:55;;;;;;;;;;;;;;;13.95;79.07;102395.25;1046174;28;718;-60
2021/10/24 00:04:45;;;;;;;;;;;;;;;13.95;79.95;102389.88;1044968;28;773;-59
2021/10/24 00:05:36;;;;;;;;;;;;;;;13.97;80.03;102388.00;1045666;28;732;-60
2021/10/24 00:06:26;;;;;;;;;;;;;;;13.95;79.06;102384.53;1045176;28;718;-59
2021/10/24 00:07:17;;;;;;;;;;;;;;;13.97;78.18;102394.22;1045076;28;705;-59
2021/10/24 00:08:07;;;;;;;;;;;;;;;13.97;78.58;102388.84;1045008;28;975;-59
2021/10/24 00:08:57;;;;;;;;;;;;;;;13.99;78.75;102383.38;1046418;28;887;-61
2021/10/24 00:09:49;;;;;;;;;;;;;;;14.00;78.49;102382.44;1045809;28;629;-59
2021/10/24 00:10:40;;;;;;;;;;;;;;;13.94;79.15;102386.34;1047580;28;739;-60
2021/10/24 00:11:30;;;;;;;;;;;;;;;13.94;80.03;102383.66;1045976;28;706;-59
2021/10/24 00:12:21;;;;;;;;;;;;;;;13.91;79.36;102381.13;1045870;28;824;-60
2021/10/24 00:13:12;;;;;;;;;;;;;;;13.93;78.68;102381.94;1046428;28;940;-60
2021/10/24 00:14:04;;;;;;;;;;;;;;;13.91;79.65;102383.81;1046416;28;637;-61
2021/10/24 00:14:54;;;;;;;;;;;;;;;13.90;79.49;102376.72;1045961;28;860;-60
2021/10/24 00:15:45;;;;;;;;;;;;;;;13.89;80.23;102380.34;1046395;28;1901;-59
2021/10/24 00:16:35;;;;;;;;;;;;;;;13.90;78.68;102374.91;1046468;28;801;-60
2021/10/24 00:17:25;;;;;;;;;;;;;;;13.91;79.55;102373.09;1046305;28;1972;-60
2021/10/24 00:18:16;;;;;;;;;;;;;;;13.91;80.26;102381.13;1049442;28;803;-60
2021/10/24 00:19:07;;;;;;;;;;;;;;;13.92;79.64;102368.59;1050460;28;912;-60
2021/10/24 00:19:57;;;;;;;;;;;;;;;13.91;79.21;102378.47;1048999;28;653;-60
2021/10/24 00:20:48;;;;;;;;;;;;;;;13.89;79.48;102370.50;1049071;28;681;-60
2021/10/24 00:21:38;;;;;;;;;;;;;;;13.88;79.41;102373.25;1050554;28;844;-60
2021/10/24 00:22:28;;;;;;;;;;;;;;;13.92;79.06;102374.84;1049243;28;794;-60
2021/10/24 00:23:19;;;;;;;;;;;;;;;13.93;79.33;102370.34;1049784;28;1147;-60
2021/10/24 00:24:09;;;;;;;;;;;;;;;13.91;80.01;102373.09;1048926;28;599;-60
2021/10/24 00:25:00;;;;;;;;;;;;;;;13.92;79.35;102371.28;1049714;28;2028;-60
2021/10/24 00:25:50;;;;;;;;;;;;;;;13.92;79.84;102376.66;1048926;28;724;-60
2021/10/24 00:26:40;;;;;;;;;;;;;;;13.91;79.82;102370.41;1049862;28;752;-60
2021/10/24 00:27:31;;;;;;;;;;;;;;;13.92;79.11;102371.28;1048590;28;1384;-60
2021/10/24 00:28:21;;;;;;;;;;;;;;;13.91;79.88;102375.78;1049896;28;746;-60
2021/10/24 00:29:12;;;;;;;;;;;;;;;13.93;79.03;102376.56;1048642;28;693;-60
2021/10/24 00:30:02;;;;;;;;;;;;;;;13.94;79.45;102375.63;1049716;28;2045;-59
2021/10/24 00:30:53;;;;;;;;;;;;;;;13.90;79.07;102377.59;1049835;28;664;-59
2021/10/24 00:31:43;;;;;;;;;;;;;;;13.93;78.23;102375.69;1049829;28;741;-60
2021/10/24 00:32:34;;;;;;;;;;;;;;;13.92;79.79;102376.66;1048878;28;731;-60
2021/10/24 00:33:24;;;;;;;;;;;;;;;13.89;79.76;102375.00;1048936;28;750;-60
2021/10/24 00:34:14;;;;;;;;;;;;;;;13.89;79.05;102375.84;1050465;28;792;-60
2021/10/24 00:35:05;;;;;;;;;;;;;;;13.90;79.18;102371.38;1049529;28;1841;-60
2021/10/24 00:35:55;;;;;;;;;;;;;;;13.92;79.00;102380.19;1050345;28;1965;-60
2021/10/24 00:36:46;;;;;;;;;;;;;;;13.94;78.92;102372.94;1050276;28;710;-60
2021/10/24 00:37:36;;;;;;;;;;;;;;;13.90;79.75;102374.03;1049427;28;743;-60
2021/10/24 00:38:26;;;;;;;;;;;;;;;13.92;78.51;102369.47;1049257;28;776;-60
2021/10/24 00:39:17;;;;;;;;;;;;;;;13.92;79.02;102369.47;1049398;28;837;-60
2021/10/24 00:40:07;;;;;;;;;;;;;;;13.91;78.64;102367.75;1044757;28;913;-60
2021/10/24 00:40:58;;;;;;;;;;;;;;;13.90;79.25;102376.72;1046893;28;618;-60
2021/10/24 00:41:48;;;;;;;;;;;;;;;13.89;79.42;102375.84;1045412;28;1922;-60
2021/10/24 00:42:39;;;;;;;;;;;;;;;13.90;79.22;102376.72;1046723;28;1777;-60
2021/10/24 00:43:29;;;;;;;;;;;;;;;13.89;79.07;102369.63;1050250;28;2014;-60
2021/10/24 00:44:20;;;;;;;;;;;;;;;13.89;79.15;102365.13;1050374;28;875;-60
2021/10/24 00:45:11;;;;;;;;;;;;;;;13.90;78.94;102368.69;1050569;28;617;-60
2021/10/24 00:46:02;;;;;;;;;;;;;;;13.89;79.00;102366.94;1046901;28;930;-60
2021/10/24 00:46:52;;;;;;;;;;;;;;;13.87;79.86;102371.53;1045889;28;637;-59
2021/10/24 00:47:43;;;;;;;;;;;;;;;13.87;79.07;102366.16;1046886;28;679;-60
2021/10/24 00:48:33;;;;;;;;;;;;;;;13.87;79.16;102371.53;1046674;28;862;-60
2021/10/24 00:49:24;;;;;;;;;;;;;;;13.85;79.56;102363.56;1046223;28;614;-60
2021/10/24 00:50:14;;;;;;;;;;;;;;;13.85;79.75;102362.72;1045215;28;618;-60
2021/10/24 00:51:05;;;;;;;;;;;;;;;13.87;79.70;102371.53;1042445;28;832;-60
2021/10/24 00:51:55;;;;;;;;;;;;;;;13.88;78.86;102362.53;1043029;28;628;-60
2021/10/24 00:52:45;;;;;;;;;;;;;;;13.87;79.71;102371.53;1046643;28;836;-60
2021/10/24 00:53:36;;;;;;;;;;;;;;;13.91;78.55;102367.75;1044997;28;653;-61
2021/10/24 00:54:26;;;;;;;;;;;;;;;13.89;79.53;102361.59;1046766;28;1280;-61
2021/10/24 00:55:17;;;;;;;;;;;;;;;13.86;79.27;102364.44;1043618;28;692;-61
2021/10/24 00:56:07;;;;;;;;;;;;;;;13.85;79.55;102358.22;1042836;28;1922;-61
2021/10/24 00:56:57;;;;;;;;;;;;;;;13.87;79.56;102361.69;1046758;28;715;-61
2021/10/24 00:57:48;;;;;;;;;;;;;;;13.86;79.09;102361.75;1044584;28;685;-60
2021/10/24 00:58:38;;;;;;;;;;;;;;;13.85;78.41;102357.34;1044580;28;787;-61
2021/10/24 00:59:29;;;;;;;;;;;;;;;13.84;78.92;102364.50;1044315;28;807;-60
2021/10/24 01:00:19;;;;;;;;;;;;;;;13.83;79.21;102361.91;1045570;28;681;-61
2021/10/24 01:01:10;;;;;;;;;;;;;;;13.85;78.71;102354.66;1045487;28;872;-60
2021/10/24 01:02:00;;;;;;;;;;;;;;;13.84;79.07;102352.94;1045627;28;648;-60
2021/10/24 01:02:50;;;;;;;;;;;;;;;13.84;78.97;102351.13;1044568;28;729;-61
2021/10/24 01:03:41;;;;;;;;;;;;;;;13.87;78.94;102355.44;1048643;28;1965;-61
2021/10/24 01:04:32;;;;;;;;;;;;;;;13.85;79.01;102352.84;1050300;28;629;-61
2021/10/24 01:05:22;;;;;;;;;;;;;;;13.84;79.74;102356.47;1050234;28;903;-61
2021/10/24 01:06:13;;;;;;;;;;;;;;;13.87;78.59;102360.81;1050383;28;629;-62
2021/10/24 01:07:03;;;;;;;;;;;;;;;13.84;78.78;102356.47;1049753;28;1895;-62
2021/10/24 01:07:54;;;;;;;;;;;;;;;13.85;78.47;102357.34;1049521;28;1056;-61
2021/10/24 01:08:44;;;;;;;;;;;;;;;13.88;78.40;102357.19;1050444;28;771;-61
2021/10/24 01:09:35;;;;;;;;;;;;;;;13.87;78.88;102355.44;1048946;28;674;-60
2021/10/24 01:10:25;;;;;;;;;;;;;;;13.84;78.92;102355.59;1048560;28;599;-60
2021/10/24 01:11:15;;;;;;;;;;;;;;;13.85;78.39;102360.03;1044433;28;642;-61
2021/10/24 01:12:06;;;;;;;;;;;;;;;13.87;79.53;102360.81;1045635;28;642;-60
2021/10/24 01:12:56;;;;;;;;;;;;;;;13.87;78.64;102350.97;1048241;28;1824;-60
2021/10/24 01:13:47;;;;;;;;;;;;;;;13.84;78.97;102350.25;1050222;28;1895;-60
2021/10/24 01:14:37;;;;;;;;;;;;;;;13.84;78.58;102353.81;1048517;28;705;-60
2021/10/24 01:15:27;;;;;;;;;;;;;;;13.83;79.33;102344.03;1048646;28;893;-60
2021/10/24 01:16:18;;;;;;;;;;;;;;;13.85;79.12;102351.97;1048311;28;2004;-60
2021/10/24 01:17:08;;;;;;;;;;;;;;;13.84;79.38;102345.75;1050276;28;653;-60
2021/10/24 01:17:59;;;;;;;;;;;;;;;13.82;79.61;102344.09;1050331;28;641;-59
2021/10/24 01:18:49;;;;;;;;;;;;;;;13.83;78.74;102345.84;1050299;28;657;-60
2021/10/24 01:19:40;;;;;;;;;;;;;;;13.82;79.06;102346.78;1050201;28;774;-59
2021/10/24 01:20:30;;;;;;;;;;;;;;;13.85;78.74;102346.63;1050240;28;660;-60
2021/10/24 01:21:21;;;;;;;;;;;;;;;13.85;79.28;102349.31;1050762;28;637;-60
2021/10/24 01:22:12;;;;;;;;;;;;;;;13.84;78.92;102352.94;1049601;28;644;-60
2021/10/24 01:23:02;;;;;;;;;;;;;;;13.84;79.14;102350.25;1050268;28;1028;-60
2021/10/24 01:23:53;;;;;;;;;;;;;;;13.84;79.04;102347.56;1050268;28;861;-59
2021/10/24 01:24:43;;;;;;;;;;;;;;;13.84;79.00;102345.75;1050159;28;1895;-60
2021/10/24 01:25:34;;;;;;;;;;;;;;;13.82;79.07;102346.78;1050146;28;617;-60
2021/10/24 01:26:24;;;;;;;;;;;;;;;13.85;78.64;102343.94;1050174;28;613;-60
2021/10/24 01:27:15;;;;;;;;;;;;;;;13.83;79.48;102343.16;1049971;28;1778;-60
2021/10/24 01:28:05;;;;;;;;;;;;;;;13.82;79.76;102336.94;1048589;28;1773;-59
2021/10/24 01:28:55;;;;;;;;;;;;;;;13.81;79.71;102345.91;1050233;28;613;-60
2021/10/24 01:29:46;;;;;;;;;;;;;;;13.80;79.03;102337.97;1050018;28;1810;-60
2021/10/24 01:30:36;;;;;;;;;;;;;;;13.81;78.16;102339.69;1050156;28;556;-60
2021/10/24 01:31:27;;;;;;;;;;;;;;;13.82;78.38;102341.44;1050236;28;637;-60
2021/10/24 01:32:17;;;;;;;;;;;;;;;13.81;79.18;102337.00;1050407;28;1895;-60
2021/10/24 01:33:09;;;;;;;;;;;;;;;13.81;79.52;102335.19;1050366;28;673;-60
2021/10/24 01:33:59;;;;;;;;;;;;;;;13.80;79.62;102341.50;1050713;28;732;-61
2021/10/24 01:34:51;;;;;;;;;;;;;;;13.79;79.21;102341.63;1050126;28;684;-60
2021/10/24 01:35:41;;;;;;;;;;;;;;;13.80;79.10;102343.31;1050699;28;735;-60
2021/10/24 01:36:31;;;;;;;;;;;;;;;13.81;78.83;102337.88;1049931;28;1755;-60
2021/10/24 01:37:22;;;;;;;;;;;;;;;13.81;79.56;102337.00;1050631;28;727;-60
2021/10/24 01:38:12;;;;;;;;;;;;;;;13.82;78.61;102341.44;1049086;28;1016;-60
2021/10/24 01:39:03;;;;;;;;;;;;;;;13.82;79.23;102333.38;1050265;28;680;-60
2021/10/24 01:39:53;;;;;;;;;;;;;;;13.81;78.93;102335.19;1050071;28;1894;-60
2021/10/24 01:40:44;;;;;;;;;;;;;;;13.80;79.76;102332.59;1049965;28;751;-60
2021/10/24 01:41:34;;;;;;;;;;;;;;;13.79;79.40;102333.59;1050151;28;870;-60
2021/10/24 01:42:25;;;;;;;;;;;;;;;13.81;78.93;102334.34;1049816;28;1872;-60
2021/10/24 01:43:15;;;;;;;;;;;;;;;13.80;78.84;102329.94;1049986;28;1866;-60
2021/10/24 01:44:06;;;;;;;;;;;;;;;13.80;79.72;102329.94;1050236;28;634;-60
2021/10/24 01:44:56;;;;;;;;;;;;;;;13.79;79.59;102325.53;1050674;28;802;-61
2021/10/24 01:45:46;;;;;;;;;;;;;;;13.79;79.59;102326.38;1050729;28;790;-60
2021/10/24 01:46:37;;;;;;;;;;;;;;;13.78;78.93;102330.03;1050155;28;696;-60
2021/10/24 01:47:27;;;;;;;;;;;;;;;13.82;78.92;102325.34;1046509;28;688;-60
2021/10/24 01:48:18;;;;;;;;;;;;;;;13.82;79.35;102322.66;1049163;28;2107;-60
2021/10/24 01:49:08;;;;;;;;;;;;;;;13.81;78.32;102323.63;1050197;28;879;-60
2021/10/24 01:49:59;;;;;;;;;;;;;;;13.79;79.21;102321.03;1050246;28;622;-60
2021/10/24 01:50:50;;;;;;;;;;;;;;;13.77;78.99;102322.09;1050751;28;929;-60
2021/10/24 01:51:40;;;;;;;;;;;;;;;13.80;78.02;102321.88;1050242;28;806;-60
2021/10/24 01:52:30;;;;;;;;;;;;;;;13.78;78.82;102318.47;1050118;28;689;-60
2021/10/24 01:53:21;;;;;;;;;;;;;;;13.78;79.27;102319.31;1050008;28;1011;-60
2021/10/24 01:54:11;;;;;;;;;;;;;;;13.78;79.21;102319.31;1050094;28;1239;-60
2021/10/24 01:55:02;;;;;;;;;;;;;;;13.78;79.13;102329.16;1050723;28;2085;-60
2021/10/24 01:55:52;;;;;;;;;;;;;;;13.77;79.11;102325.63;1050642;28;1902;-60
2021/10/24 01:56:43;;;;;;;;;;;;;;;13.76;78.61;102317.66;1050685;28;617;-60
2021/10/24 01:57:33;;;;;;;;;;;;;;;13.77;79.54;102314.03;1050570;28;794;-60
2021/10/24 01:58:23;;;;;;;;;;;;;;;13.79;78.90;102310.31;1050280;28;649;-60
2021/10/24 01:59:14;;;;;;;;;;;;;;;13.81;79.00;102315.59;1048020;28;762;-60
2021/10/24 02:00:04;;;;;;;;;;;;;;;13.80;78.67;102321.88;1048273;28;1742;-61
2021/10/24 02:00:55;;;;;;;;;;;;;;;13.78;79.18;102316.63;1049650;28;661;-60
2021/10/24 02:01:45;;;;;;;;;;;;;;;13.79;79.82;102318.34;1049395;28;672;-60
2021/10/24 02:02:35;;;;;;;;;;;;;;;13.77;78.79;102309.56;1048948;28;1908;-61
2021/10/24 02:03:26;;;;;;;;;;;;;;;13.79;78.37;102312.97;1049379;28;793;-61
2021/10/24 02:04:16;;;;;;;;;;;;;;;13.80;78.20;102316.53;1049117;28;2024;-60
2021/10/24 02:05:07;;;;;;;;;;;;;;;13.79;78.31;102312.16;1049462;28;673;-60
2021/10/24 02:05:57;;;;;;;;;;;;;;;13.76;79.54;102307.81;1049212;28;1878;-61
2021/10/24 02:06:48;;;;;;;;;;;;;;;13.79;78.50;102309.47;1050806;28;590;-61
2021/10/24 02:07:38;;;;;;;;;;;;;;;13.78;78.96;102315.78;1049429;28;727;-61
2021/10/24 02:08:28;;;;;;;;;;;;;;;13.79;78.56;102304.13;1049517;28;645;-61
2021/10/24 02:09:19;;;;;;;;;;;;;;;13.80;78.69;102308.50;1049541;28;756;-61
2021/10/24 02:10:09;;;;;;;;;;;;;;;13.76;79.61;102309.63;1045964;28;720;-61
2021/10/24 02:11:00;;;;;;;;;;;;;;;13.76;79.23;102310.50;1045923;28;719;-61
2021/10/24 02:11:50;;;;;;;;;;;;;;;13.77;78.79;102308.69;1045402;28;779;-61
2021/10/24 02:12:41;;;;;;;;;;;;;;;13.76;79.58;102305.13;1045472;28;1923;-61
2021/10/24 02:13:31;;;;;;;;;;;;;;;13.76;78.83;102315.00;1050605;28;1920;-61
2021/10/24 02:14:22;;;;;;;;;;;;;;;13.75;79.55;102302.53;1050607;28;1317;-61
2021/10/24 02:15:12;;;;;;;;;;;;;;;13.75;79.31;102302.53;1051070;28;619;-61
2021/10/24 02:16:03;;;;;;;;;;;;;;;13.77;78.37;102308.69;1051117;28;1894;-60
2021/10/24 02:16:53;;;;;;;;;;;;;;;13.77;78.53;102301.50;1051035;28;587;-60
2021/10/24 02:17:44;;;;;;;;;;;;;;;13.78;78.32;102299.69;1051052;28;654;-61
2021/10/24 02:18:34;;;;;;;;;;;;;;;13.77;78.30;102290.78;1051169;28;829;-61
2021/10/24 02:19:24;;;;;;;;;;;;;;;13.75;79.18;102298.06;1050558;28;645;-61
2021/10/24 02:20:15;;;;;;;;;;;;;;;13.75;78.48;102292.69;1047038;28;866;-61
2021/10/24 02:21:06;;;;;;;;;;;;;;;13.75;79.52;102302.53;1045932;28;674;-61
2021/10/24 02:21:56;;;;;;;;;;;;;;;13.73;79.56;102294.59;1045903;28;688;-61
2021/10/24 02:22:47;;;;;;;;;;;;;;;13.71;79.26;102296.47;1045845;28;641;-61
2021/10/24 02:23:37;;;;;;;;;;;;;;;13.73;78.48;102288.38;1045895;28;709;-61
2021/10/24 02:24:27;;;;;;;;;;;;;;;13.73;79.52;102293.72;1045903;28;665;-60
2021/10/24 02:25:18;;;;;;;;;;;;;;;13.73;78.86;102291.03;1045990;28;602;-61
2021/10/24 02:26:08;;;;;;;;;;;;;;;13.76;78.36;102289.06;1045918;28;740;-61
2021/10/24 02:26:59;;;;;;;;;;;;;;;13.77;78.75;102290.78;1045330;28;684;-61
2021/10/24 02:27:49;;;;;;;;;;;;;;;13.74;78.90;102290.97;1045744;28;1211;-61
2021/10/24 02:28:40;;;;;;;;;;;;;;;13.77;78.57;102289.94;1045674;28;694;-60
2021/10/24 02:29:30;;;;;;;;;;;;;;;13.74;79.60;102285.59;1045746;28;613;-61
2021/10/24 02:30:20;;;;;;;;;;;;;;;13.76;79.37;102293.56;1045889;28;772;-61
2021/10/24 02:31:11;;;;;;;;;;;;;;;13.77;78.80;102285.44;1046508;28;645;-61
2021/10/24 02:32:01;;;;;;;;;;;;;;;13.76;79.06;102288.19;1046415;28;633;-60
2021/10/24 02:32:52;;;;;;;;;;;;;;;13.75;78.94;102289.16;1045932;28;834;-60
2021/10/24 02:33:42;;;;;;;;;;;;;;;13.76;78.06;102285.53;1046476;28;625;-60
2021/10/24 02:34:32;;;;;;;;;;;;;;;13.74;78.95;102285.59;1044734;28;708;-61
2021/10/24 02:35:25;;;;;;;;;;;;;;;13.76;78.00;102293.56;1045834;28;605;-60
2021/10/24 02:36:16;;;;;;;;;;;;;;;13.74;78.88;102284.75;1046729;28;1957;-60
2021/10/24 02:37:06;;;;;;;;;;;;;;;13.73;78.93;102288.38;1048881;28;880;-61
2021/10/24 02:37:56;;;;;;;;;;;;;;;13.73;78.88;102283.00;1048954;28;924;-60
2021/10/24 02:38:47;;;;;;;;;;;;;;;13.73;78.76;102283.00;1048854;28;840;-61
2021/10/24 02:39:37;;;;;;;;;;;;;;;13.74;79.08;102282.06;1048604;28;1939;-60
2021/10/24 02:40:28;;;;;;;;;;;;;;;13.73;78.78;102277.66;1050866;28;1901;-60
2021/10/24 02:41:18;;;;;;;;;;;;;;;13.73;78.53;102283.00;1049348;28;793;-60
2021/10/24 02:42:09;;;;;;;;;;;;;;;13.74;79.52;102280.25;1049268;28;663;-60
2021/10/24 02:42:59;;;;;;;;;;;;;;;13.73;79.01;102283.88;1048962;28;1988;-60
2021/10/24 02:43:49;;;;;;;;;;;;;;;13.75;77.92;102275.75;1045678;28;762;-59
2021/10/24 02:44:40;;;;;;;;;;;;;;;13.72;79.24;102273.22;1042671;28;625;-60
2021/10/24 02:45:30;;;;;;;;;;;;;;;13.73;78.42;102274.97;1040714;28;731;-60
2021/10/24 02:46:21;;;;;;;;;;;;;;;13.74;78.92;102271.34;1046346;28;664;-60
2021/10/24 02:47:11;;;;;;;;;;;;;;;13.74;79.03;102271.34;1048457;28;1890;-60
2021/10/24 02:48:02;;;;;;;;;;;;;;;13.71;78.89;102276.88;1051295;28;660;-60
2021/10/24 02:48:52;;;;;;;;;;;;;;;13.70;79.29;102275.13;1046923;28;561;-60
2021/10/24 02:49:43;;;;;;;;;;;;;;;13.73;78.78;102269.59;1049436;28;1838;-60
2021/10/24 02:50:33;;;;;;;;;;;;;;;13.72;78.94;102275.91;1049239;28;1898;-60
2021/10/24 02:51:23;;;;;;;;;;;;;;;13.71;79.03;102269.69;1050935;28;818;-60
2021/10/24 02:52:14;;;;;;;;;;;;;;;13.70;78.82;102278.69;1051109;28;770;-60
2021/10/24 02:53:04;;;;;;;;;;;;;;;13.71;78.59;102274.19;1051008;28;919;-60
2021/10/24 02:53:55;;;;;;;;;;;;;;;13.71;79.33;102268.81;1051060;28;882;-60
2021/10/24 02:54:45;;;;;;;;;;;;;;;13.71;78.73;102272.38;1050425;28;748;-60
2021/10/24 02:55:36;;;;;;;;;;;;;;;13.71;78.67;102268.81;1050769;28;687;-60
2021/10/24 02:56:26;;;;;;;;;;;;;;;13.73;78.54;102272.28;1051045;28;728;-61
2021/10/24 02:57:16;;;;;;;;;;;;;;;13.73;78.48;102269.59;1051061;28;621;-61
2021/10/24 02:58:07;;;;;;;;;;;;;;;13.72;78.49;102270.56;1051058;28;775;-61
2021/10/24 02:58:57;;;;;;;;;;;;;;;13.71;79.26;102275.06;1050997;28;766;-61
2021/10/24 02:59:48;;;;;;;;;;;;;;;13.70;79.14;102270.63;1050567;28;1830;-61
2021/10/24 03:00:38;;;;;;;;;;;;;;;13.71;78.25;102269.69;1049277;28;626;-61
2021/10/24 03:01:28;;;;;;;;;;;;;;;13.71;78.95;102258.09;1048936;28;2184;-62
2021/10/24 03:02:19;;;;;;;;;;;;;;;13.69;79.29;102268.03;1047348;28;999;-61
2021/10/24 03:03:10;;;;;;;;;;;;;;;13.67;78.63;102265.44;1049208;28;1791;-61
2021/10/24 03:04:00;;;;;;;;;;;;;;;13.70;78.76;102267.09;1049220;28;862;-61
2021/10/24 03:04:50;;;;;;;;;;;;;;;13.67;79.38;102264.56;1051110;28;684;-61
2021/10/24 03:05:41;;;;;;;;;;;;;;;13.68;79.07;102263.63;1051124;28;792;-61
2021/10/24 03:06:32;;;;;;;;;;;;;;;13.70;78.52;102264.41;1049325;28;696;-61
2021/10/24 03:07:22;;;;;;;;;;;;;;;13.70;78.55;102261.75;1051005;28;819;-61
2021/10/24 03:08:13;;;;;;;;;;;;;;;13.70;78.63;102261.75;1050869;28;1007;-61
2021/10/24 03:09:03;;;;;;;;;;;;;;;13.69;78.15;102266.22;1050202;28;669;-61
2021/10/24 03:09:53;;;;;;;;;;;;;;;13.69;77.68;102260.88;1047706;28;1858;-61
2021/10/24 03:10:44;;;;;;;;;;;;;;;13.68;78.91;102259.13;1047952;28;689;-61
2021/10/24 03:11:34;;;;;;;;;;;;;;;13.69;78.85;102265.34;1049248;28;1017;-60
2021/10/24 03:12:25;;;;;;;;;;;;;;;13.68;78.93;102263.63;1049891;28;856;-60
2021/10/24 03:13:15;;;;;;;;;;;;;;;13.68;78.56;102261.81;1049785;28;1998;-60
2021/10/24 03:14:06;;;;;;;;;;;;;;;13.68;78.61;102259.13;1049315;28;610;-60
2021/10/24 03:14:56;;;;;;;;;;;;;;;13.67;78.64;102268.13;1050731;28;1960;-60
2021/10/24 03:15:47;;;;;;;;;;;;;;;13.68;78.04;102266.31;1048720;28;626;-61
2021/10/24 03:16:37;;;;;;;;;;;;;;;13.68;77.78;102259.13;1049299;28;785;-61
2021/10/24 03:17:28;;;;;;;;;;;;;;;13.68;78.64;102259.13;1049263;28;1936;-61
2021/10/24 03:18:18;;;;;;;;;;;;;;;13.67;78.95;102256.53;1051110;28;626;-60
2021/10/24 03:19:08;;;;;;;;;;;;;;;13.68;78.75;102255.59;1050537;28;816;-60
2021/10/24 03:19:59;;;;;;;;;;;;;;;13.65;79.26;102259.31;1051116;28;633;-60
2021/10/24 03:20:49;;;;;;;;;;;;;;;13.64;78.38;102256.72;1050881;28;658;-60
2021/10/24 03:21:40;;;;;;;;;;;;;;;13.67;77.82;102261.91;1050769;28;692;-60
2021/10/24 03:22:30;;;;;;;;;;;;;;;13.67;78.09;102254.72;1050995;28;672;-60
2021/10/24 03:23:21;;;;;;;;;;;;;;;13.66;78.71;102257.50;1050704;28;1003;-60
2021/10/24 03:24:11;;;;;;;;;;;;;;;13.66;78.56;102257.50;1051139;28;795;-60
2021/10/24 03:25:01;;;;;;;;;;;;;;;13.65;79.40;102258.44;1050541;28;1452;-60
2021/10/24 03:25:52;;;;;;;;;;;;;;;13.64;78.74;102254.03;1050390;28;874;-60
2021/10/24 03:26:42;;;;;;;;;;;;;;;13.63;79.28;102252.28;1050508;28;726;-61
2021/10/24 03:27:33;;;;;;;;;;;;;;;13.65;77.79;102248.59;1050209;28;1339;-61
2021/10/24 03:28:23;;;;;;;;;;;;;;;13.64;79.11;102259.38;1050449;28;590;-60
2021/10/24 03:29:13;;;;;;;;;;;;;;;13.63;79.67;102257.66;1050324;28;884;-60
2021/10/24 03:30:04;;;;;;;;;;;;;;;13.63;78.05;102255.84;1050555;28;606;-60
2021/10/24 03:30:58;;;;;;;;;;;;;;;13.63;78.09;102246.94;1050431;28;712;-60
2021/10/24 03:31:48;;;;;;;;;;;;;;;13.64;79.07;102257.56;1048436;28;1960;-60
2021/10/24 03:32:39;;;;;;;;;;;;;;;13.64;78.53;102260.25;1045990;28;668;-60
2021/10/24 03:33:29;;;;;;;;;;;;;;;13.62;79.15;102255.91;1045340;28;916;-60
2021/10/24 03:34:20;;;;;;;;;;;;;;;13.63;78.54;102260.34;1049619;28;1924;-60
2021/10/24 03:35:10;;;;;;;;;;;;;;;13.63;78.65;102260.34;1050399;28;964;-61
2021/10/24 03:36:00;;;;;;;;;;;;;;;13.62;78.86;102248.75;1050867;28;1902;-60
2021/10/24 03:36:51;;;;;;;;;;;;;;;13.61;78.78;102252.41;1047600;28;685;-60
2021/10/24 03:37:41;;;;;;;;;;;;;;;13.63;78.82;102254.97;1046287;28;782;-61
2021/10/24 03:38:32;;;;;;;;;;;;;;;13.63;78.93;102255.84;1046238;28;762;-60
2021/10/24 03:39:22;;;;;;;;;;;;;;;13.61;78.95;102252.41;1045604;28;746;-61
2021/10/24 03:40:13;;;;;;;;;;;;;;;13.61;78.52;102255.09;1045722;28;720;-61
2021/10/24 03:41:03;;;;;;;;;;;;;;;13.61;78.11;102252.41;1045640;28;712;-61
2021/10/24 03:41:53;;;;;;;;;;;;;;;13.61;79.15;102251.53;1045668;28;746;-61
2021/10/24 03:42:47;;;;;;;;;;;;;;;13.61;78.59;102254.22;1045620;28;1872;-61
2021/10/24 03:43:37;;;;;;;;;;;;;;;13.60;78.96;102247.13;1047299;28;1573;-61
2021/10/24 03:44:27;;;;;;;;;;;;;;;13.62;78.24;102246.06;1050151;28;618;-62
2021/10/24 03:45:18;;;;;;;;;;;;;;;13.61;78.52;102247.06;1045913;28;662;-61
2021/10/24 03:46:08;;;;;;;;;;;;;;;13.61;78.77;102249.72;1046480;28;634;-61
2021/10/24 03:46:59;;;;;;;;;;;;;;;13.60;78.47;102249.81;1046576;28;633;-61
2021/10/24 03:47:49;;;;;;;;;;;;;;;13.60;78.59;102248.00;1049825;28;2031;-61
2021/10/24 03:48:40;;;;;;;;;;;;;;;13.61;78.69;102248.88;1050122;28;622;-61
2021/10/24 03:49:30;;;;;;;;;;;;;;;13.60;78.62;102249.81;1049897;28;691;-61
2021/10/24 03:50:20;;;;;;;;;;;;;;;13.59;78.98;102248.09;1050038;28;716;-61
2021/10/24 03:51:11;;;;;;;;;;;;;;;13.61;78.62;102243.50;1047730;28;665;-61
2021/10/24 03:52:01;;;;;;;;;;;;;;;13.61;78.26;102246.19;1045858;28;853;-61
2021/10/24 03:52:52;;;;;;;;;;;;;;;13.61;77.80;102247.06;1046062;28;626;-60
2021/10/24 03:53:42;;;;;;;;;;;;;;;13.62;78.53;102245.22;1045896;28;658;-60
2021/10/24 03:54:33;;;;;;;;;;;;;;;13.60;79.23;102239.09;1045764;28;1989;-60
2021/10/24 03:55:23;;;;;;;;;;;;;;;13.62;77.64;102240.72;1048948;28;693;-60
2021/10/24 03:56:14;;;;;;;;;;;;;;;13.61;79.09;102241.69;1049551;28;1909;-60
2021/10/24 03:57:04;;;;;;;;;;;;;;;13.59;79.74;102240.03;1050627;28;621;-60
2021/10/24 03:57:55;;;;;;;;;;;;;;;13.59;78.89;102237.38;1049684;28;594;-60
2021/10/24 03:58:45;;;;;;;;;;;;;;;13.61;78.61;102239.03;1049897;28;757;-61
2021/10/24 03:59:36;;;;;;;;;;;;;;;13.60;78.65;102239.09;1050028;28;645;-61
2021/10/24 04:00:26;;;;;;;;;;;;;;;13.57;79.32;102240.13;1049893;28;872;-61
2021/10/24 04:01:16;;;;;;;;;;;;;;;13.59;78.30;102240.03;1049757;28;2014;-62
2021/10/24 04:02:07;;;;;;;;;;;;;;;13.59;78.18;102237.38;1045631;28;794;-61
2021/10/24 04:02:57;;;;;;;;;;;;;;;13.60;77.96;102233.75;1046465;28;601;-61
2021/10/24 04:03:48;;;;;;;;;;;;;;;13.60;78.84;102236.41;1046507;28;605;-61
2021/10/24 04:04:38;;;;;;;;;;;;;;;13.61;77.70;102232.78;1046411;28;783;-61
2021/10/24 04:05:28;;;;;;;;;;;;;;;13.58;78.29;102236.50;1045766;28;776;-61
2021/10/24 04:06:19;;;;;;;;;;;;;;;13.59;77.89;102235.56;1041409;28;716;-61
2021/10/24 04:07:09;;;;;;;;;;;;;;;13.58;78.38;102230.28;1042642;28;733;-61
2021/10/24 04:08:00;;;;;;;;;;;;;;;13.59;78.14;102240.03;1046878;28;994;-61
2021/10/24 04:08:50;;;;;;;;;;;;;;;13.60;78.23;102239.09;1046342;28;925;-61
2021/10/24 04:09:41;;;;;;;;;;;;;;;13.58;78.93;102235.63;1046403;28;668;-60
2021/10/24 04:10:31;;;;;;;;;;;;;;;13.57;78.82;102236.59;1046429;28;613;-57
2021/10/24 04:11:22;;;;;;;;;;;;;;;13.57;79.04;102233.91;1048835;28;2013;-59
2021/10/24 04:12:12;;;;;;;;;;;;;;;13.59;78.32;102232.00;1050077;28;751;-59
2021/10/24 04:13:02;;;;;;;;;;;;;;;13.57;79.21;102236.59;1049742;28;1847;-60
2021/10/24 04:13:53;;;;;;;;;;;;;;;13.57;78.39;102232.09;1049849;28;695;-60
2021/10/24 04:14:44;;;;;;;;;;;;;;;13.59;77.96;102229.34;1049971;28;707;-57
2021/10/24 04:15:35;;;;;;;;;;;;;;;13.60;78.48;102239.09;1048637;28;715;-60
2021/10/24 04:16:25;;;;;;;;;;;;;;;13.55;78.44;102242.88;1049956;28;625;-57
2021/10/24 04:17:16;;;;;;;;;;;;;;;13.56;78.48;102233.03;1051074;28;862;-58
2021/10/24 04:18:06;;;;;;;;;;;;;;;13.57;78.88;102241.94;1050356;28;2087;-57
2021/10/24 04:18:56;;;;;;;;;;;;;;;13.57;79.05;102240.13;1051589;28;838;-58
2021/10/24 04:19:47;;;;;;;;;;;;;;;13.56;78.89;102233.03;1051890;28;754;-57
2021/10/24 04:20:37;;;;;;;;;;;;;;;13.59;77.75;102240.03;1051513;28;691;-57
2021/10/24 04:21:28;;;;;;;;;;;;;;;13.61;77.65;102238.16;1050319;28;875;-57
2021/10/24 04:22:18;;;;;;;;;;;;;;;13.59;78.94;102240.03;1051615;28;1060;-57
2021/10/24 04:23:09;;;;;;;;;;;;;;;13.58;78.38;102236.50;1051661;28;923;-57
2021/10/24 04:23:59;;;;;;;;;;;;;;;13.58;77.71;102241.88;1051722;28;636;-57
2021/10/24 04:24:50;;;;;;;;;;;;;;;13.57;78.43;102233.91;1051263;28;1871;-57
2021/10/24 04:25:40;;;;;;;;;;;;;;;13.55;78.24;102232.19;1050928;28;707;-57